Time,TemperatureF,DewpointF,PressureIn,WindDirection,WindDirectionDegrees,WindSpeedMPH,WindSpeedGustMPH,Humidity,HourlyPrecipIn,Conditions,Clouds,dailyrainin,SoftwareType,DateUTC
2013-04-29 00:02:00,57.2,49.7,29.81,West,276,0.0,0.0,76,0.00,,,0.00,Wunderground v.1.15,2013-04-29 05:02:00,
2013-04-29 00:07:00,57.1,50.0,29.81,West,276,0.0,-999.0,77,-99.99,,,0.00,weatherlink.com 1.10,2013-04-29 05:07:00,
2013-04-29 00:12:00,56.8,49.7,29.81,West,276,0.0,0.0,77,0.00,,,0.00,Wunderground v.1.15,2013-04-29 05:12:00,
2013-04-29 00:18:00,56.7,49.9,29.81,West,276,0.0,0.0,78,0.00,,,0.00,Wunderground v.1.15,2013-04-29 05:18:00,
2013-04-29 00:24:00,56.4,49.6,29.81,West,276,0.0,0.0,78,0.00,,,0.00,Wunderground v.1.15,2013-04-29 05:24:00,
2013-04-29 00:30:00,56.3,49.9,29.81,West,276,0.0,0.0,79,0.00,,,0.00,Wunderground v.1.15,2013-04-29 05:30:00,
2013-04-29 00:36:00,56.1,50.0,29.81,West,276,0.0,-999.0,79,-99.99,,,0.00,weatherlink.com 1.10,2013-04-29 05:36:00,
2013-04-29 00:41:00,55.9,49.5,29.81,West,276,0.0,0.0,79,0.00,,,0.00,Wunderground v.1.15,2013-04-29 05:41:00,
2013-04-29 00:47:00,55.9,49.8,29.81,West,276,0.0,0.0,80,0.00,,,0.00,Wunderground v.1.15,2013-04-29 05:47:00,
2013-04-29 00:53:00,56.0,50.0,29.81,West,276,0.0,-999.0,80,-99.99,,,0.00,weatherlink.com 1.10,2013-04-29 05:53:00,
2013-04-29 00:59:00,56.0,49.6,29.81,West,276,0.0,0.0,79,0.00,,,0.00,Wunderground v.1.15,2013-04-29 05:59:00,
2013-04-29 01:04:00,55.9,49.5,29.81,West,276,0.0,0.0,79,0.00,,,0.00,Wunderground v.1.15,2013-04-29 06:04:00,
2013-04-29 01:10:00,55.9,49.5,29.81,West,276,0.0,0.0,79,0.00,,,0.00,Wunderground v.1.15,2013-04-29 06:10:00,
2013-04-29 01:16:00,55.9,49.5,29.81,West,276,0.0,0.0,79,0.00,,,0.00,Wunderground v.1.15,2013-04-29 06:16:00,
2013-04-29 01:22:00,56.0,50.0,29.81,West,276,0.0,-999.0,79,-99.99,,,0.00,weatherlink.com 1.10,2013-04-29 06:22:00,
2013-04-29 01:27:00,56.0,49.6,29.81,West,276,1.0,1.0,79,0.00,,,0.00,Wunderground v.1.15,2013-04-29 06:27:00,
2013-04-29 01:32:00,56.1,49.3,29.81,West,276,0.0,0.0,78,0.00,,,0.00,Wunderground v.1.15,2013-04-29 06:32:00,
2013-04-29 01:38:00,56.2,49.4,29.80,West,276,1.0,1.0,78,0.00,,,0.00,Wunderground v.1.15,2013-04-29 06:38:00,
2013-04-29 01:44:00,56.2,49.4,29.80,West,276,0.0,1.0,78,0.00,,,0.00,Wunderground v.1.15,2013-04-29 06:44:00,
2013-04-29 01:50:00,56.2,49.4,29.80,West,276,0.0,0.0,78,0.00,,,0.00,Wunderground v.1.15,2013-04-29 06:50:00,
2013-04-29 01:56:00,56.1,49.3,29.79,West,276,0.0,0.0,78,0.00,,,0.00,Wunderground v.1.15,2013-04-29 06:56:00,
2013-04-29 02:01:00,55.9,49.1,29.80,West,276,0.0,0.0,78,0.00,,,0.00,Wunderground v.1.15,2013-04-29 07:01:00,
2013-04-29 02:06:00,55.7,49.3,29.80,West,276,0.0,1.0,79,0.00,,,0.00,Wunderground v.1.15,2013-04-29 07:06:00,
2013-04-29 02:11:00,55.7,49.3,29.79,West,276,0.0,0.0,79,0.00,,,0.00,Wunderground v.1.15,2013-04-29 07:11:00,
2013-04-29 02:17:00,55.6,49.2,29.79,West,276,0.0,0.0,79,0.00,,,0.00,Wunderground v.1.15,2013-04-29 07:17:00,
2013-04-29 02:22:00,55.5,49.1,29.79,West,276,0.0,0.0,79,0.00,,,0.00,Wunderground v.1.15,2013-04-29 07:22:00,
2013-04-29 02:27:00,55.3,48.9,29.78,West,276,0.0,0.0,79,0.00,,,0.00,Wunderground v.1.15,2013-04-29 07:27:00,
2013-04-29 02:32:00,55.2,48.8,29.79,West,276,0.0,0.0,79,0.00,,,0.00,Wunderground v.1.15,2013-04-29 07:32:00,
2013-04-29 02:37:00,55.2,49.1,29.79,West,276,0.0,1.0,80,0.00,,,0.00,Wunderground v.1.15,2013-04-29 07:37:00,
2013-04-29 02:42:00,55.1,49.0,29.79,West,276,0.0,0.0,80,0.00,,,0.00,Wunderground v.1.15,2013-04-29 07:42:00,
2013-04-29 02:47:00,55.0,48.9,29.79,West,276,0.0,0.0,80,0.00,,,0.00,Wunderground v.1.15,2013-04-29 07:47:00,
2013-04-29 02:52:00,55.0,48.9,29.79,West,276,0.0,1.0,80,0.00,,,0.00,Wunderground v.1.15,2013-04-29 07:52:00,
2013-04-29 02:57:00,55.0,48.9,29.79,West,281,0.0,2.0,80,0.00,,,0.00,Wunderground v.1.15,2013-04-29 07:57:00,
2013-04-29 03:02:00,55.0,48.9,29.79,West,281,0.0,0.0,80,0.00,,,0.00,Wunderground v.1.15,2013-04-29 08:02:00,
2013-04-29 03:07:00,55.0,48.9,29.79,West,281,0.0,0.0,80,0.00,,,0.00,Wunderground v.1.15,2013-04-29 08:07:00,
2013-04-29 03:12:00,54.9,48.8,29.79,West,281,0.0,1.0,80,0.00,,,0.00,Wunderground v.1.15,2013-04-29 08:12:00,
2013-04-29 03:17:00,54.8,49.1,29.79,West,281,0.0,1.0,81,0.00,,,0.00,Wunderground v.1.15,2013-04-29 08:17:00,
2013-04-29 03:22:00,54.7,49.0,29.79,West,281,0.0,0.0,81,0.00,,,0.00,Wunderground v.1.15,2013-04-29 08:22:00,
2013-04-29 03:27:00,54.6,48.9,29.79,West,281,0.0,1.0,81,0.00,,,0.00,Wunderground v.1.15,2013-04-29 08:27:00,
2013-04-29 03:32:00,54.5,49.1,29.80,West,281,0.0,0.0,82,0.00,,,0.00,Wunderground v.1.15,2013-04-29 08:32:00,
2013-04-29 03:37:00,54.6,49.2,29.80,West,281,0.0,1.0,82,0.00,,,0.00,Wunderground v.1.15,2013-04-29 08:37:00,
2013-04-29 03:42:00,54.6,48.9,29.80,WNW,284,0.0,1.0,81,0.00,,,0.00,Wunderground v.1.15,2013-04-29 08:42:00,
2013-04-29 03:47:00,54.7,49.0,29.80,WNW,284,0.0,1.0,81,0.00,,,0.00,Wunderground v.1.15,2013-04-29 08:47:00,
2013-04-29 03:52:00,54.6,48.9,29.81,WNW,284,0.0,0.0,81,0.00,,,0.00,Wunderground v.1.15,2013-04-29 08:52:00,
2013-04-29 03:57:00,54.5,48.8,29.81,WNW,284,0.0,0.0,81,0.00,,,0.00,Wunderground v.1.15,2013-04-29 08:57:00,
2013-04-29 04:02:00,54.4,48.7,29.81,WNW,284,0.0,0.0,81,0.00,,,0.00,Wunderground v.1.15,2013-04-29 09:02:00,
2013-04-29 04:07:00,54.1,48.7,29.81,WNW,284,0.0,0.0,82,0.00,,,0.00,Wunderground v.1.15,2013-04-29 09:07:00,
2013-04-29 04:12:00,53.9,48.5,29.81,WNW,284,0.0,0.0,82,0.00,,,0.00,Wunderground v.1.15,2013-04-29 09:12:00,
2013-04-29 04:17:00,53.7,48.3,29.81,WNW,284,0.0,0.0,82,0.00,,,0.00,Wunderground v.1.15,2013-04-29 09:17:00,
2013-04-29 04:22:00,53.6,48.6,29.81,WNW,284,0.0,0.0,83,0.00,,,0.00,Wunderground v.1.15,2013-04-29 09:22:00,
2013-04-29 04:27:00,53.5,48.5,29.81,WNW,284,0.0,0.0,83,0.00,,,0.00,Wunderground v.1.15,2013-04-29 09:27:00,
2013-04-29 04:32:00,53.3,48.3,29.81,WNW,284,0.0,0.0,83,0.00,,,0.00,Wunderground v.1.15,2013-04-29 09:32:00,
2013-04-29 04:37:00,53.3,48.3,29.81,WNW,284,0.0,0.0,83,0.00,,,0.00,Wunderground v.1.15,2013-04-29 09:37:00,
2013-04-29 04:42:00,53.2,48.2,29.82,WNW,284,0.0,0.0,83,0.00,,,0.00,Wunderground v.1.15,2013-04-29 09:42:00,
2013-04-29 04:47:00,53.2,48.2,29.82,WNW,284,0.0,0.0,83,0.00,,,0.00,Wunderground v.1.15,2013-04-29 09:47:00,
2013-04-29 04:52:00,53.1,48.1,29.82,WNW,286,0.0,1.0,83,0.00,,,0.00,Wunderground v.1.15,2013-04-29 09:52:00,
2013-04-29 04:57:00,53.1,48.4,29.82,NW,320,0.0,2.0,84,0.00,,,0.00,Wunderground v.1.15,2013-04-29 09:57:00,
2013-04-29 05:02:00,53.3,48.3,29.82,NNW,338,0.0,2.0,83,0.00,,,0.00,Wunderground v.1.15,2013-04-29 10:02:00,
2013-04-29 05:07:00,53.6,48.6,29.82,NNW,338,0.0,2.0,83,0.00,,,0.00,Wunderground v.1.15,2013-04-29 10:07:00,
2013-04-29 05:12:00,53.7,48.3,29.83,NNW,338,0.0,1.0,82,0.00,,,0.00,Wunderground v.1.15,2013-04-29 10:12:00,
2013-04-29 05:17:00,53.7,48.3,29.82,NNW,338,0.0,1.0,82,0.00,,,0.00,Wunderground v.1.15,2013-04-29 10:17:00,
2013-04-29 05:22:00,53.7,48.3,29.82,NNW,338,0.0,0.0,82,0.00,,,0.00,Wunderground v.1.15,2013-04-29 10:22:00,
2013-04-29 05:27:00,53.6,48.2,29.82,NNW,338,0.0,1.0,82,0.00,,,0.00,Wunderground v.1.15,2013-04-29 10:27:00,
2013-04-29 05:32:00,53.4,48.0,29.82,NNW,338,0.0,0.0,82,0.00,,,0.00,Wunderground v.1.15,2013-04-29 10:32:00,
2013-04-29 05:37:00,53.3,48.3,29.82,NNW,338,0.0,0.0,83,0.00,,,0.00,Wunderground v.1.15,2013-04-29 10:37:00,
2013-04-29 05:42:00,53.0,48.3,29.82,NNW,338,0.0,0.0,84,0.00,,,0.00,Wunderground v.1.15,2013-04-29 10:42:00,
2013-04-29 05:47:00,52.8,48.1,29.83,NNW,338,0.0,0.0,84,0.00,,,0.00,Wunderground v.1.15,2013-04-29 10:47:00,
2013-04-29 05:52:00,52.7,48.3,29.83,NNW,338,0.0,0.0,85,0.00,,,0.00,Wunderground v.1.15,2013-04-29 10:52:00,
2013-04-29 05:57:00,52.7,48.3,29.83,NNW,338,0.0,0.0,85,0.00,,,0.00,Wunderground v.1.15,2013-04-29 10:57:00,
2013-04-29 06:02:00,52.7,48.3,29.82,NNW,338,0.0,0.0,85,0.00,,,0.00,Wunderground v.1.15,2013-04-29 11:02:00,
2013-04-29 06:07:00,52.8,48.7,29.82,NNW,338,0.0,1.0,86,0.00,,,0.00,Wunderground v.1.15,2013-04-29 11:07:00,
2013-04-29 06:12:00,53.0,48.9,29.83,NNW,338,0.0,1.0,86,0.00,,,0.00,Wunderground v.1.15,2013-04-29 11:12:00,
2013-04-29 06:17:00,53.3,48.9,29.83,NNW,338,0.0,1.0,85,0.00,,,0.00,Wunderground v.1.15,2013-04-29 11:17:00,
2013-04-29 06:22:00,53.5,49.1,29.82,NNW,338,2.0,2.0,85,0.00,,,0.00,Wunderground v.1.15,2013-04-29 11:22:00,
2013-04-29 06:27:00,53.7,49.0,29.83,NNW,338,0.0,2.0,84,0.00,,,0.00,Wunderground v.1.15,2013-04-29 11:27:00,
2013-04-29 06:32:00,53.8,49.1,29.82,NNW,338,0.0,2.0,84,0.00,,,0.00,Wunderground v.1.15,2013-04-29 11:32:00,
2013-04-29 06:37:00,53.8,49.1,29.83,NNW,338,0.0,2.0,84,0.00,,,0.00,Wunderground v.1.15,2013-04-29 11:37:00,
2013-04-29 06:42:00,53.9,49.2,29.82,NNW,338,0.0,1.0,84,0.00,,,0.00,Wunderground v.1.15,2013-04-29 11:42:00,
2013-04-29 06:47:00,53.9,49.2,29.82,NNW,338,0.0,1.0,84,0.00,,,0.00,Wunderground v.1.15,2013-04-29 11:47:00,
2013-04-29 06:53:00,54.0,49.3,29.82,NNW,338,1.0,2.0,84,0.00,,,0.00,Wunderground v.1.15,2013-04-29 11:53:00,
2013-04-29 06:58:00,54.1,49.4,29.82,NNW,338,0.0,2.0,84,0.00,,,0.00,Wunderground v.1.15,2013-04-29 11:58:00,
2013-04-29 07:02:00,54.2,49.5,29.82,NNW,339,1.0,1.0,84,0.00,,,0.00,Wunderground v.1.15,2013-04-29 12:02:00,
2013-04-29 07:08:00,54.4,49.7,29.82,NNW,339,1.0,2.0,84,0.00,,,0.00,Wunderground v.1.15,2013-04-29 12:08:00,
2013-04-29 07:13:00,54.5,49.8,29.82,NNW,339,0.0,2.0,84,0.00,,,0.00,Wunderground v.1.15,2013-04-29 12:13:00,
2013-04-29 07:18:00,54.6,49.9,29.82,NNW,339,2.0,2.0,84,0.00,,,0.00,Wunderground v.1.15,2013-04-29 12:18:00,
2013-04-29 07:23:00,54.7,49.6,29.82,NNW,339,0.0,0.0,83,0.00,,,0.00,Wunderground v.1.15,2013-04-29 12:23:00,
2013-04-29 07:28:00,54.8,49.7,29.83,NNW,339,2.0,2.0,83,0.00,,,0.00,Wunderground v.1.15,2013-04-29 12:28:00,
2013-04-29 07:33:00,54.9,49.8,29.83,NNW,339,0.0,2.0,83,0.00,,,0.00,Wunderground v.1.15,2013-04-29 12:33:00,
2013-04-29 07:38:00,54.9,50.2,29.84,NNW,339,0.0,2.0,84,0.00,,,0.00,Wunderground v.1.15,2013-04-29 12:38:00,
2013-04-29 07:43:00,55.0,49.9,29.83,NNW,332,0.0,1.0,83,0.00,,,0.00,Wunderground v.1.15,2013-04-29 12:43:00,
2013-04-29 07:48:00,55.1,50.4,29.83,NNW,333,1.0,2.0,84,0.00,,,0.00,Wunderground v.1.15,2013-04-29 12:48:00,
2013-04-29 07:53:00,55.2,50.4,29.84,NNW,334,2.0,2.0,84,0.00,,,0.00,Wunderground v.1.15,2013-04-29 12:53:00,
2013-04-29 07:58:00,55.3,50.2,29.84,NNW,336,0.0,3.0,83,0.00,,,0.00,Wunderground v.1.15,2013-04-29 12:58:00,
2013-04-29 08:03:00,55.4,50.3,29.83,NNW,336,2.0,2.0,83,0.00,,,0.00,Wunderground v.1.15,2013-04-29 13:03:00,
2013-04-29 08:08:00,55.5,50.4,29.83,NNW,337,1.0,2.0,83,0.00,,,0.00,Wunderground v.1.15,2013-04-29 13:08:00,
2013-04-29 08:13:00,55.8,50.7,29.84,NNW,337,0.0,3.0,83,0.00,,,0.00,Wunderground v.1.15,2013-04-29 13:13:00,
2013-04-29 08:18:00,56.2,51.1,29.84,North,3,2.0,3.0,83,0.00,,,0.00,Wunderground v.1.15,2013-04-29 13:18:00,
2013-04-29 08:23:00,56.6,51.5,29.83,NNW,344,0.0,4.0,83,0.00,,,0.00,Wunderground v.1.15,2013-04-29 13:23:00,
2013-04-29 08:28:00,57.1,51.7,29.83,NW,311,0.0,4.0,82,0.00,,,0.00,Wunderground v.1.15,2013-04-29 13:28:00,
2013-04-29 08:33:00,57.4,51.6,29.83,NW,323,0.0,3.0,81,0.00,,,0.00,Wunderground v.1.15,2013-04-29 13:33:00,
2013-04-29 08:38:00,57.8,52.0,29.83,NNW,343,0.0,3.0,81,0.00,,,0.00,Wunderground v.1.15,2013-04-29 13:38:00,
2013-04-29 08:43:00,58.1,52.0,29.83,NNW,345,1.0,4.0,80,0.00,,,0.00,Wunderground v.1.15,2013-04-29 13:43:00,
2013-04-29 08:48:00,58.3,52.2,29.83,NW,326,1.0,4.0,80,0.00,,,0.00,Wunderground v.1.15,2013-04-29 13:48:00,
2013-04-29 08:53:00,58.5,52.4,29.83,NNW,338,1.0,3.0,80,0.00,,,0.00,Wunderground v.1.15,2013-04-29 13:53:00,
2013-04-29 08:58:00,58.9,52.4,29.83,NNW,332,0.0,3.0,79,0.00,,,0.00,Wunderground v.1.15,2013-04-29 13:58:00,
2013-04-29 09:03:00,59.3,52.8,29.82,NW,324,3.0,3.0,79,0.00,,,0.00,Wunderground v.1.15,2013-04-29 14:03:00,
2013-04-29 09:08:00,59.8,52.9,29.82,NW,322,0.0,3.0,78,0.00,,,0.00,Wunderground v.1.15,2013-04-29 14:08:00,
2013-04-29 09:13:00,60.1,52.9,29.82,NNW,334,0.0,1.0,77,0.00,,,0.00,Wunderground v.1.15,2013-04-29 14:13:00,
2013-04-29 09:18:00,60.4,52.8,29.82,NW,316,1.0,3.0,76,0.00,,,0.00,Wunderground v.1.15,2013-04-29 14:18:00,
2013-04-29 09:23:00,60.5,52.9,29.82,NNW,339,2.0,3.0,76,0.00,,,0.00,Wunderground v.1.15,2013-04-29 14:23:00,
2013-04-29 09:28:00,60.6,53.0,29.82,NNW,344,2.0,3.0,76,0.00,,,0.00,Wunderground v.1.15,2013-04-29 14:28:00,
2013-04-29 09:33:00,60.8,52.8,29.82,NNW,332,2.0,5.0,75,0.00,,,0.00,Wunderground v.1.15,2013-04-29 14:33:00,
2013-04-29 09:38:00,61.0,53.0,29.82,NNW,328,1.0,5.0,75,0.00,,,0.00,Wunderground v.1.15,2013-04-29 14:38:00,
2013-04-29 09:43:00,61.3,53.3,29.81,NW,323,0.0,2.0,75,0.00,,,0.00,Wunderground v.1.15,2013-04-29 14:43:00,
2013-04-29 09:48:00,61.5,53.1,29.81,NNW,333,1.0,4.0,74,0.00,,,0.00,Wunderground v.1.15,2013-04-29 14:48:00,
2013-04-29 09:53:00,61.5,53.1,29.81,North,4,0.0,2.0,74,0.00,,,0.00,Wunderground v.1.15,2013-04-29 14:53:00,
2013-04-29 09:58:00,61.7,53.0,29.81,North,3,0.0,6.0,73,0.00,,,0.00,Wunderground v.1.15,2013-04-29 14:58:00,
2013-04-29 10:03:00,62.0,53.2,29.81,North,350,3.0,4.0,73,0.00,,,0.00,Wunderground v.1.15,2013-04-29 15:03:00,
2013-04-29 10:08:00,61.9,52.8,29.81,NNW,346,2.0,4.0,72,0.00,,,0.00,Wunderground v.1.15,2013-04-29 15:08:00,
2013-04-29 10:13:00,62.0,52.9,29.80,NNW,343,1.0,6.0,72,0.00,,,0.00,Wunderground v.1.15,2013-04-29 15:13:00,
2013-04-29 10:18:00,62.2,53.1,29.80,NNE,18,0.0,6.0,72,0.00,,,0.00,Wunderground v.1.15,2013-04-29 15:18:00,
2013-04-29 10:23:00,62.3,52.8,29.80,NNW,328,3.0,3.0,71,0.00,,,0.00,Wunderground v.1.15,2013-04-29 15:23:00,
2013-04-29 10:28:00,62.6,52.3,29.80,NNW,339,2.0,6.0,69,0.00,,,0.00,Wunderground v.1.15,2013-04-29 15:28:00,
2013-04-29 10:33:00,63.1,52.8,29.81,NNW,347,1.0,3.0,69,0.00,,,0.00,Wunderground v.1.15,2013-04-29 15:33:00,
2013-04-29 10:38:00,63.5,53.1,29.81,NNW,333,2.0,5.0,69,0.00,,,0.00,Wunderground v.1.15,2013-04-29 15:38:00,
2013-04-29 10:43:00,63.9,53.1,29.81,North,10,0.0,5.0,68,0.00,,,0.00,Wunderground v.1.15,2013-04-29 15:43:00,
2013-04-29 10:48:00,64.0,52.4,29.81,WNW,295,6.0,6.0,66,0.00,,,0.00,Wunderground v.1.15,2013-04-29 15:48:00,
2013-04-29 10:53:00,63.9,52.3,29.81,NNW,343,2.0,6.0,66,0.00,,,0.00,Wunderground v.1.15,2013-04-29 15:53:00,
2013-04-29 10:58:00,63.9,52.3,29.81,NNE,19,0.0,6.0,66,0.00,,,0.00,Wunderground v.1.15,2013-04-29 15:58:00,
2013-04-29 11:03:00,64.1,52.5,29.81,North,5,1.0,3.0,66,0.00,,,0.00,Wunderground v.1.15,2013-04-29 16:03:00,
2013-04-29 11:08:00,64.2,52.6,29.81,North,6,3.0,6.0,66,0.00,,,0.00,Wunderground v.1.15,2013-04-29 16:08:00,
2013-04-29 11:13:00,64.1,52.5,29.82,NNW,335,4.0,5.0,66,0.00,,,0.00,Wunderground v.1.15,2013-04-29 16:13:00,
2013-04-29 11:18:00,64.1,52.1,29.82,North,360,1.0,6.0,65,0.00,,,0.00,Wunderground v.1.15,2013-04-29 16:18:00,
2013-04-29 11:23:00,64.0,52.4,29.81,NNW,345,2.0,4.0,66,0.00,,,0.00,Wunderground v.1.15,2013-04-29 16:23:00,
2013-04-29 11:28:00,64.0,52.0,29.81,NNW,345,0.0,4.0,65,0.00,,,0.00,Wunderground v.1.15,2013-04-29 16:28:00,
2013-04-29 11:33:00,64.2,52.2,29.80,North,358,4.0,4.0,65,0.00,,,0.00,Wunderground v.1.15,2013-04-29 16:33:00,
2013-04-29 11:39:00,64.4,52.4,29.80,NNW,338,3.0,4.0,65,0.00,,,0.00,Wunderground v.1.15,2013-04-29 16:39:00,
2013-04-29 11:44:00,64.6,52.1,29.78,WNW,285,0.0,3.0,64,0.00,,,0.00,Wunderground v.1.15,2013-04-29 16:44:00,
2013-04-29 11:49:00,64.7,51.8,29.79,NW,321,0.0,3.0,63,0.00,,,0.00,Wunderground v.1.15,2013-04-29 16:49:00,
2013-04-29 11:54:00,64.8,51.9,29.80,NNW,330,2.0,5.0,63,0.00,,,0.00,Wunderground v.1.15,2013-04-29 16:54:00,
2013-04-29 11:59:00,64.8,52.3,29.80,NNW,343,3.0,5.0,64,0.00,,,0.00,Wunderground v.1.15,2013-04-29 16:59:00,
2013-04-29 12:04:00,64.7,52.2,29.81,North,354,2.0,3.0,64,0.00,,,0.00,Wunderground v.1.15,2013-04-29 17:04:00,
2013-04-29 12:09:00,64.5,52.0,29.81,NNW,345,2.0,4.0,64,0.00,,,0.00,Wunderground v.1.15,2013-04-29 17:09:00,
2013-04-29 12:14:00,64.5,52.5,29.81,NNW,336,1.0,3.0,65,0.00,,,0.00,Wunderground v.1.15,2013-04-29 17:14:00,
2013-04-29 12:19:00,64.5,52.0,29.80,NNW,339,0.0,3.0,64,0.00,,,0.00,Wunderground v.1.15,2013-04-29 17:19:00,
2013-04-29 12:24:00,64.6,52.6,29.80,North,349,1.0,2.0,65,0.00,,,0.00,Wunderground v.1.15,2013-04-29 17:24:00,
2013-04-29 12:29:00,64.6,52.6,29.80,North,349,1.0,2.0,65,0.00,,,0.00,Wunderground v.1.15,2013-04-29 17:29:00,
2013-04-29 12:34:00,64.6,52.6,29.80,North,349,0.0,1.0,65,0.00,,,0.00,Wunderground v.1.15,2013-04-29 17:34:00,
2013-04-29 12:39:00,64.7,52.7,29.80,NNW,344,0.0,2.0,65,0.00,,,0.00,Wunderground v.1.15,2013-04-29 17:39:00,
2013-04-29 12:44:00,64.7,52.2,29.79,NNW,339,1.0,2.0,64,0.00,,,0.00,Wunderground v.1.15,2013-04-29 17:44:00,
2013-04-29 12:49:00,64.7,52.7,29.79,NNW,341,2.0,2.0,65,0.00,,,0.00,Wunderground v.1.15,2013-04-29 17:49:00,
2013-04-29 12:54:00,64.6,52.1,29.79,North,350,2.0,4.0,64,0.00,,,0.00,Wunderground v.1.15,2013-04-29 17:54:00,
2013-04-29 12:59:00,64.6,52.1,29.78,NNW,343,0.0,4.0,64,0.00,,,0.00,Wunderground v.1.15,2013-04-29 17:59:00,
2013-04-29 13:04:00,64.7,52.2,29.78,NW,316,1.0,3.0,64,0.00,,,0.00,Wunderground v.1.15,2013-04-29 18:04:00,
2013-04-29 13:09:00,64.8,52.3,29.78,NW,324,0.0,3.0,64,0.00,,,0.00,Wunderground v.1.15,2013-04-29 18:09:00,
2013-04-29 13:14:00,64.8,53.6,29.78,WNW,294,0.0,2.0,67,0.00,,,0.00,Wunderground v.1.15,2013-04-29 18:14:00,
2013-04-29 13:19:00,64.7,53.1,29.77,NNW,330,1.0,1.0,66,0.00,,,0.00,Wunderground v.1.15,2013-04-29 18:19:00,
2013-04-29 13:24:00,64.4,52.8,29.77,NNW,330,0.0,3.0,66,0.00,,,0.00,Wunderground v.1.15,2013-04-29 18:24:00,
2013-04-29 13:29:00,64.2,53.4,29.77,North,359,3.0,3.0,68,0.00,,,0.00,Wunderground v.1.15,2013-04-29 18:29:00,
2013-04-29 13:34:00,63.9,53.5,29.76,NNW,341,0.0,4.0,69,0.00,,,0.00,Wunderground v.1.15,2013-04-29 18:34:00,
2013-04-29 13:39:00,63.6,54.0,29.76,NNW,337,0.0,1.0,71,0.00,,,0.00,Wunderground v.1.15,2013-04-29 18:39:00,
2013-04-29 13:44:00,63.5,54.7,29.76,NNW,333,0.0,2.0,73,0.00,,,0.00,Wunderground v.1.15,2013-04-29 18:44:00,
2013-04-29 13:49:00,63.5,54.7,29.76,West,271,0.0,0.0,73,0.00,,,0.00,Wunderground v.1.15,2013-04-29 18:49:00,
2013-04-29 13:54:00,63.5,54.7,29.75,NW,304,4.0,4.0,73,0.00,,,0.00,Wunderground v.1.15,2013-04-29 18:54:00,
2013-04-29 13:59:00,63.6,55.2,29.74,SW,235,0.0,1.0,74,0.00,,,0.00,Wunderground v.1.15,2013-04-29 18:59:00,
2013-04-29 14:04:00,63.7,54.9,29.74,NNW,347,3.0,3.0,73,0.00,,,0.00,Wunderground v.1.15,2013-04-29 19:04:00,
2013-04-29 14:09:00,63.8,55.0,29.75,NNW,330,2.0,2.0,73,0.00,,,0.00,Wunderground v.1.15,2013-04-29 19:09:00,
2013-04-29 14:14:00,63.9,55.1,29.75,West,266,0.0,3.0,73,0.00,,,0.00,Wunderground v.1.15,2013-04-29 19:14:00,
2013-04-29 14:19:00,63.8,55.0,29.76,NNE,15,0.0,1.0,73,0.00,,,0.00,Wunderground v.1.15,2013-04-29 19:19:00,
2013-04-29 14:24:00,63.7,55.3,29.76,NNW,338,1.0,3.0,74,0.00,,,0.00,Wunderground v.1.15,2013-04-29 19:24:00,
2013-04-29 14:29:00,63.6,55.5,29.77,NNW,337,0.0,0.0,75,0.00,,,0.00,Wunderground v.1.15,2013-04-29 19:29:00,
2013-04-29 14:34:00,63.4,55.0,29.77,ESE,112,0.0,2.0,74,0.00,,,0.00,Wunderground v.1.15,2013-04-29 19:34:00,
2013-04-29 14:39:00,63.3,55.2,29.77,ESE,112,0.0,0.0,75,0.00,,,0.00,Wunderground v.1.15,2013-04-29 19:39:00,
2013-04-29 14:44:00,63.2,55.1,29.77,ESE,112,0.0,0.0,75,0.00,,,0.00,Wunderground v.1.15,2013-04-29 19:44:00,
2013-04-29 14:49:00,63.2,55.1,29.76,ESE,112,0.0,0.0,75,0.00,,,0.00,Wunderground v.1.15,2013-04-29 19:49:00,
2013-04-29 14:54:00,63.3,55.6,29.76,ESE,112,0.0,0.0,76,0.00,,,0.00,Wunderground v.1.15,2013-04-29 19:54:00,
2013-04-29 15:00:00,63.5,55.8,29.76,North,6,0.0,1.0,76,0.00,,,0.00,Wunderground v.1.15,2013-04-29 20:00:00,
2013-04-29 15:05:00,63.8,55.0,29.76,North,349,0.0,2.0,73,0.00,,,0.00,Wunderground v.1.15,2013-04-29 20:05:00,
2013-04-29 15:10:00,64.0,55.2,29.76,North,349,1.0,1.0,73,0.00,,,0.00,Wunderground v.1.15,2013-04-29 20:10:00,
2013-04-29 15:15:00,64.1,54.9,29.75,NNW,340,0.0,3.0,72,0.00,,,0.00,Wunderground v.1.15,2013-04-29 20:15:00,
2013-04-29 15:20:00,64.4,54.8,29.75,NNW,342,3.0,3.0,71,0.00,,,0.00,Wunderground v.1.15,2013-04-29 20:20:00,
2013-04-29 15:25:00,64.6,54.6,29.75,North,1,2.0,4.0,70,0.00,,,0.00,Wunderground v.1.15,2013-04-29 20:25:00,
2013-04-29 15:30:00,64.8,54.8,29.75,NNW,336,1.0,3.0,70,0.00,,,0.00,Wunderground v.1.15,2013-04-29 20:30:00,
2013-04-29 15:35:00,65.0,54.6,29.75,SSW,207,2.0,3.0,69,0.00,,,0.00,Wunderground v.1.15,2013-04-29 20:35:00,
2013-04-29 15:40:00,65.2,54.4,29.75,North,353,1.0,3.0,68,0.00,,,0.00,Wunderground v.1.15,2013-04-29 20:40:00,
2013-04-29 15:45:00,65.4,54.2,29.74,SSW,212,1.0,3.0,67,0.00,,,0.00,Wunderground v.1.15,2013-04-29 20:45:00,
2013-04-29 15:50:00,65.6,54.3,29.73,WSW,245,0.0,2.0,67,0.00,,,0.00,Wunderground v.1.15,2013-04-29 20:50:00,
2013-04-29 15:55:00,65.9,54.2,29.73,North,351,2.0,4.0,66,0.00,,,0.00,Wunderground v.1.15,2013-04-29 20:55:00,
2013-04-29 16:00:00,66.7,54.6,29.72,SW,227,2.0,4.0,65,0.00,,,0.00,Wunderground v.1.15,2013-04-29 21:00:00,
2013-04-29 16:05:00,67.4,54.8,29.72,West,260,0.0,6.0,64,0.00,,,0.00,Wunderground v.1.15,2013-04-29 21:05:00,
2013-04-29 16:10:00,67.7,54.6,29.72,SW,226,2.0,5.0,63,0.00,,,0.00,Wunderground v.1.15,2013-04-29 21:10:00,
2013-04-29 16:15:00,68.1,55.0,29.72,SW,224,2.0,5.0,63,0.00,,,0.00,Wunderground v.1.15,2013-04-29 21:15:00,
2013-04-29 16:20:00,68.8,55.2,29.72,SW,230,3.0,3.0,62,0.00,,,0.00,Wunderground v.1.15,2013-04-29 21:20:00,
2013-04-29 16:25:00,68.9,54.4,29.72,NNW,339,1.0,6.0,60,0.00,,,0.00,Wunderground v.1.15,2013-04-29 21:25:00,
2013-04-29 16:30:00,68.8,54.8,29.71,West,275,1.0,4.0,61,0.00,,,0.01,Wunderground v.1.15,2013-04-29 21:30:00,
2013-04-29 16:35:00,68.7,54.7,29.72,NNE,18,3.0,5.0,61,0.00,,,0.01,Wunderground v.1.15,2013-04-29 21:35:00,
2013-04-29 16:40:00,68.9,55.3,29.72,NW,325,1.0,2.0,62,0.00,,,0.01,Wunderground v.1.15,2013-04-29 21:40:00,
2013-04-29 16:45:00,69.4,54.4,29.71,North,349,1.0,6.0,59,0.00,,,0.01,Wunderground v.1.15,2013-04-29 21:45:00,
2013-04-29 16:50:00,69.8,54.4,29.71,NNE,23,2.0,5.0,58,0.00,,,0.01,Wunderground v.1.15,2013-04-29 21:50:00,
2013-04-29 16:55:00,70.0,54.1,29.72,SW,218,1.0,5.0,57,0.00,,,0.01,Wunderground v.1.15,2013-04-29 21:55:00,
2013-04-29 17:00:00,70.3,54.3,29.72,NNW,336,0.0,2.0,57,0.00,,,0.01,Wunderground v.1.15,2013-04-29 22:00:00,
2013-04-29 17:05:00,70.4,54.0,29.72,NNW,337,1.0,5.0,56,0.00,,,0.01,Wunderground v.1.15,2013-04-29 22:05:00,
2013-04-29 17:10:00,70.3,53.4,29.72,NNE,21,2.0,6.0,55,0.00,,,0.01,Wunderground v.1.15,2013-04-29 22:10:00,
2013-04-29 17:15:00,70.3,53.4,29.72,North,357,3.0,6.0,55,0.00,,,0.01,Wunderground v.1.15,2013-04-29 22:15:00,
2013-04-29 17:20:00,70.6,53.6,29.72,NNW,346,1.0,3.0,55,0.00,,,0.01,Wunderground v.1.15,2013-04-29 22:20:00,
2013-04-29 17:25:00,71.0,53.5,29.72,North,360,1.0,4.0,54,0.00,,,0.01,Wunderground v.1.15,2013-04-29 22:25:00,
2013-04-29 17:30:00,71.1,53.6,29.72,NNW,334,3.0,4.0,54,0.00,,,0.01,Wunderground v.1.15,2013-04-29 22:30:00,
2013-04-29 17:35:00,71.1,54.1,29.72,NW,312,0.0,6.0,55,0.00,,,0.01,Wunderground v.1.15,2013-04-29 22:35:00,
2013-04-29 17:40:00,71.0,54.0,29.72,NNW,338,4.0,4.0,55,0.00,,,0.01,Wunderground v.1.15,2013-04-29 22:40:00,
2013-04-29 17:45:00,70.7,53.7,29.72,NNW,340,3.0,4.0,55,0.00,,,0.01,Wunderground v.1.15,2013-04-29 22:45:00,
2013-04-29 17:50:00,70.4,54.0,29.72,NNW,339,1.0,3.0,56,0.00,,,0.01,Wunderground v.1.15,2013-04-29 22:50:00,
2013-04-29 17:55:00,70.3,53.9,29.71,North,3,0.0,4.0,56,0.00,,,0.01,Wunderground v.1.15,2013-04-29 22:55:00,
2013-04-29 18:00:00,70.3,54.3,29.71,NW,317,1.0,3.0,57,0.00,,,0.01,Wunderground v.1.15,2013-04-29 23:00:00,
2013-04-29 18:05:00,70.4,54.4,29.71,NNE,15,3.0,3.0,57,0.00,,,0.01,Wunderground v.1.15,2013-04-29 23:05:00,
2013-04-29 18:10:00,70.5,54.5,29.70,SW,234,3.0,4.0,57,0.00,,,0.01,Wunderground v.1.15,2013-04-29 23:10:00,
2013-04-29 18:15:00,70.6,54.6,29.70,WNW,285,1.0,5.0,57,0.00,,,0.01,Wunderground v.1.15,2013-04-29 23:15:00,
2013-04-29 18:20:00,70.7,54.7,29.70,NNW,332,1.0,4.0,57,0.00,,,0.01,Wunderground v.1.15,2013-04-29 23:20:00,
2013-04-29 18:25:00,70.7,54.7,29.70,North,8,2.0,5.0,57,0.00,,,0.01,Wunderground v.1.15,2013-04-29 23:25:00,
2013-04-29 18:30:00,70.7,55.2,29.70,West,267,0.0,2.0,58,0.00,,,0.01,Wunderground v.1.15,2013-04-29 23:30:00,
2013-04-29 18:35:00,70.6,54.6,29.70,SW,232,1.0,5.0,57,0.00,,,0.01,Wunderground v.1.15,2013-04-29 23:35:00,
2013-04-29 18:40:00,70.5,54.5,29.70,North,357,5.0,5.0,57,0.00,,,0.01,Wunderground v.1.15,2013-04-29 23:40:00,
2013-04-29 18:45:00,70.4,54.0,29.69,South,187,0.0,5.0,56,0.00,,,0.01,Wunderground v.1.15,2013-04-29 23:45:00,
2013-04-29 18:50:00,70.3,53.9,29.69,WSW,247,2.0,6.0,56,0.00,,,0.01,Wunderground v.1.15,2013-04-29 23:50:00,
2013-04-29 18:55:00,70.2,54.2,29.69,WSW,247,2.0,7.0,57,0.00,,,0.01,Wunderground v.1.15,2013-04-29 23:55:00,
2013-04-29 19:00:00,70.1,54.2,29.69,West,280,0.0,2.0,57,0.00,,,0.01,Wunderground v.1.15,2013-04-30 00:00:00,
2013-04-29 19:05:00,69.9,54.4,29.69,WNW,295,1.0,4.0,58,0.00,,,0.01,Wunderground v.1.15,2013-04-30 00:05:00,
2013-04-29 19:10:00,69.8,54.4,29.69,WSW,243,2.0,4.0,58,0.00,,,0.01,Wunderground v.1.15,2013-04-30 00:10:00,
2013-04-29 19:15:00,69.7,54.3,29.69,WSW,240,4.0,5.0,58,0.00,,,0.01,Wunderground v.1.15,2013-04-30 00:15:00,
2013-04-29 19:20:00,69.6,54.6,29.69,WSW,250,0.0,3.0,59,0.00,,,0.01,Wunderground v.1.15,2013-04-30 00:20:00,
2013-04-29 19:25:00,69.5,54.5,29.70,West,270,1.0,4.0,59,0.00,,,0.01,Wunderground v.1.15,2013-04-30 00:25:00,
2013-04-29 19:31:00,69.3,54.4,29.69,WNW,284,0.0,4.0,59,0.00,,,0.01,Wunderground v.1.15,2013-04-30 00:31:00,
2013-04-29 19:36:00,69.2,54.7,29.69,WSW,237,3.0,4.0,60,0.00,,,0.01,Wunderground v.1.15,2013-04-30 00:36:00,
2013-04-29 19:41:00,69.0,54.5,29.70,WNW,284,1.0,2.0,60,0.00,,,0.01,Wunderground v.1.15,2013-04-30 00:41:00,
2013-04-29 19:46:00,68.9,54.9,29.70,NNW,330,0.0,5.0,61,0.00,,,0.01,Wunderground v.1.15,2013-04-30 00:46:00,
2013-04-29 19:51:00,68.8,54.8,29.69,WSW,247,0.0,3.0,61,0.00,,,0.01,Wunderground v.1.15,2013-04-30 00:51:00,
2013-04-29 19:56:00,68.6,55.1,29.70,WSW,237,0.0,4.0,62,0.00,,,0.01,Wunderground v.1.15,2013-04-30 00:56:00,
2013-04-29 20:01:00,68.4,54.9,29.70,WSW,237,2.0,2.0,62,0.00,,,0.01,Wunderground v.1.15,2013-04-30 01:01:00,
2013-04-29 20:06:00,68.2,55.1,29.70,SW,226,1.0,2.0,63,0.00,,,0.01,Wunderground v.1.15,2013-04-30 01:06:00,
2013-04-29 20:11:00,68.0,54.9,29.70,WNW,293,0.0,1.0,63,0.00,,,0.01,Wunderground v.1.15,2013-04-30 01:11:00,
2013-04-29 20:16:00,67.8,55.2,29.70,WSW,244,2.0,2.0,64,0.00,,,0.01,Wunderground v.1.15,2013-04-30 01:16:00,
2013-04-29 20:21:00,67.7,55.5,29.70,SW,231,0.0,1.0,65,0.00,,,0.01,Wunderground v.1.15,2013-04-30 01:21:00,
2013-04-29 20:26:00,67.7,55.9,29.70,SW,224,0.0,3.0,66,0.00,,,0.01,Wunderground v.1.15,2013-04-30 01:26:00,
2013-04-29 20:31:00,67.6,55.8,29.70,WNW,282,1.0,1.0,66,0.00,,,0.01,Wunderground v.1.15,2013-04-30 01:31:00,
2013-04-29 20:36:00,67.5,56.2,29.70,NNW,328,1.0,5.0,67,0.00,,,0.01,Wunderground v.1.15,2013-04-30 01:36:00,
2013-04-29 20:41:00,67.6,56.2,29.70,NNW,348,2.0,2.0,67,0.00,,,0.01,Wunderground v.1.15,2013-04-30 01:41:00,
2013-04-29 20:46:00,67.6,56.2,29.70,SSW,210,0.0,5.0,67,0.00,,,0.01,Wunderground v.1.15,2013-04-30 01:46:00,
2013-04-29 20:51:00,67.6,56.2,29.70,North,359,3.0,4.0,67,0.00,,,0.01,Wunderground v.1.15,2013-04-30 01:51:00,
2013-04-29 20:56:00,67.6,56.7,29.70,SW,230,1.0,4.0,68,0.00,,,0.01,Wunderground v.1.15,2013-04-30 01:56:00,
2013-04-29 21:01:00,67.5,56.6,29.69,North,353,2.0,5.0,68,0.00,,,0.01,Wunderground v.1.15,2013-04-30 02:01:00,
2013-04-29 21:06:00,67.4,56.5,29.69,NNW,341,0.0,5.0,68,0.00,,,0.01,Wunderground v.1.15,2013-04-30 02:06:00,
2013-04-29 21:11:00,67.3,56.8,29.70,West,268,2.0,3.0,69,0.00,,,0.01,Wunderground v.1.15,2013-04-30 02:11:00,
2013-04-29 21:16:00,67.2,56.7,29.70,SSW,199,2.0,5.0,69,0.00,,,0.01,Wunderground v.1.15,2013-04-30 02:16:00,
2013-04-29 21:21:00,67.0,56.5,29.70,North,350,3.0,6.0,69,0.00,,,0.01,Wunderground v.1.15,2013-04-30 02:21:00,
2013-04-29 21:26:00,67.0,56.9,29.70,North,355,3.0,6.0,70,0.00,,,0.01,Wunderground v.1.15,2013-04-30 02:26:00,
2013-04-29 21:31:00,66.8,56.7,29.70,North,1,1.0,8.0,70,0.00,,,0.01,Wunderground v.1.15,2013-04-30 02:31:00,
2013-04-29 21:36:00,66.8,57.1,29.70,WSW,241,0.0,8.0,71,0.00,,,0.01,Wunderground v.1.15,2013-04-30 02:36:00,
2013-04-29 21:41:00,66.7,57.0,29.69,West,259,1.0,4.0,71,0.00,,,0.01,Wunderground v.1.15,2013-04-30 02:41:00,
2013-04-29 21:46:00,66.7,57.0,29.70,NNW,329,2.0,6.0,71,0.00,,,0.01,Wunderground v.1.15,2013-04-30 02:46:00,
2013-04-29 21:51:00,66.7,57.0,29.70,North,349,2.0,7.0,71,0.00,,,0.01,Wunderground v.1.15,2013-04-30 02:51:00,
2013-04-29 21:56:00,66.5,57.2,29.71,North,352,3.0,7.0,72,0.00,,,0.01,Wunderground v.1.15,2013-04-30 02:56:00,
2013-04-29 22:01:00,66.4,57.1,29.70,West,264,0.0,5.0,72,0.00,,,0.01,Wunderground v.1.15,2013-04-30 03:01:00,
2013-04-29 22:06:00,66.3,57.0,29.70,SSW,211,2.0,5.0,72,0.00,,,0.01,Wunderground v.1.15,2013-04-30 03:06:00,
2013-04-29 22:11:00,66.2,57.3,29.71,WNW,287,0.0,3.0,73,0.00,,,0.01,Wunderground v.1.15,2013-04-30 03:11:00,
2013-04-29 22:16:00,66.1,57.2,29.70,NW,324,0.0,4.0,73,0.00,,,0.01,Wunderground v.1.15,2013-04-30 03:16:00,
2013-04-29 22:21:00,66.1,57.2,29.70,NNE,19,5.0,5.0,73,0.00,,,0.01,Wunderground v.1.15,2013-04-30 03:21:00,
2013-04-29 22:26:00,66.0,57.5,29.70,NNW,334,0.0,5.0,74,0.00,,,0.01,Wunderground v.1.15,2013-04-30 03:26:00,
2013-04-29 22:31:00,66.0,57.5,29.70,NNW,343,1.0,2.0,74,0.00,,,0.01,Wunderground v.1.15,2013-04-30 03:31:00,
2013-04-29 22:36:00,65.9,57.4,29.70,SW,234,2.0,5.0,74,0.00,,,0.01,Wunderground v.1.15,2013-04-30 03:36:00,
2013-04-29 22:42:00,65.8,57.3,29.70,North,9,0.0,2.0,74,0.00,,,0.01,Wunderground v.1.15,2013-04-30 03:42:00,
2013-04-29 22:47:00,65.7,57.2,29.70,NW,323,1.0,4.0,74,0.00,,,0.01,Wunderground v.1.15,2013-04-30 03:47:00,
2013-04-29 22:52:00,65.6,57.5,29.70,NNW,345,0.0,3.0,75,0.00,,,0.01,Wunderground v.1.15,2013-04-30 03:52:00,
2013-04-29 22:57:00,65.5,57.4,29.70,NNW,348,2.0,6.0,75,0.00,,,0.01,Wunderground v.1.15,2013-04-30 03:57:00,
2013-04-29 23:01:00,65.4,57.3,29.70,NNW,348,2.0,3.0,75,0.00,,,0.01,Wunderground v.1.15,2013-04-30 04:01:00,
2013-04-29 23:06:00,65.4,57.3,29.69,NW,324,0.0,7.0,75,0.00,,,0.01,Wunderground v.1.15,2013-04-30 04:06:00,
2013-04-29 23:11:00,65.2,57.4,29.69,NNW,337,4.0,4.0,76,0.00,,,0.01,Wunderground v.1.15,2013-04-30 04:11:00,
2013-04-29 23:16:00,65.2,57.4,29.69,WSW,237,1.0,4.0,76,0.00,,,0.01,Wunderground v.1.15,2013-04-30 04:16:00,
2013-04-29 23:21:00,65.1,57.3,29.69,South,187,0.0,4.0,76,0.00,,,0.01,Wunderground v.1.15,2013-04-30 04:21:00,
2013-04-29 23:26:00,65.0,57.6,29.69,NNW,347,1.0,7.0,77,0.00,,,0.01,Wunderground v.1.15,2013-04-30 04:26:00,
2013-04-29 23:31:00,64.9,57.5,29.69,North,353,1.0,4.0,77,0.00,,,0.01,Wunderground v.1.15,2013-04-30 04:31:00,
2013-04-29 23:36:00,64.8,57.4,29.68,WSW,239,0.0,4.0,77,0.00,,,0.01,Wunderground v.1.15,2013-04-30 04:36:00,
2013-04-29 23:41:00,64.7,57.3,29.69,SSW,210,2.0,4.0,77,0.00,,,0.01,Wunderground v.1.15,2013-04-30 04:41:00,
2013-04-29 23:46:00,64.6,57.2,29.68,NNW,340,1.0,4.0,77,0.00,,,0.01,Wunderground v.1.15,2013-04-30 04:46:00,
2013-04-29 23:51:00,64.4,57.0,29.69,North,353,1.0,3.0,77,0.00,,,0.01,Wunderground v.1.15,2013-04-30 04:51:00,
2013-04-29 23:56:00,64.3,57.3,29.69,North,1,1.0,3.0,78,0.00,,,0.01,Wunderground v.1.15,2013-04-30 04:56:00,